sensor_id;sensor_type;location;lat;lon;timestamp;P1;durP1;ratioP1;P2;durP2;ratioP2
44248;SDS011;29923;48.718;9.272;2022-12-07T00:01:07;11.50;;;7.53;;
44248;SDS011;29923;48.718;9.272;2022-12-07T00:03:34;12.70;;;7.60;;
44248;SDS011;29923;48.718;9.272;2022-12-07T00:06:02;12.48;;;8.38;;
44248;SDS011;29923;48.718;9.272;2022-12-07T00:08:29;12.38;;;8.15;;
44248;SDS011;29923;48.718;9.272;2022-12-07T00:10:55;12.55;;;8.63;;
44248;SDS011;29923;48.718;9.272;2022-12-07T00:13:20;13.90;;;8.57;;
44248;SDS011;29923;48.718;9.272;2022-12-07T00:15:45;15.63;;;8.85;;
44248;SDS011;29923;48.718;9.272;2022-12-07T00:18:11;11.68;;;8.65;;
44248;SDS011;29923;48.718;9.272;2022-12-07T00:20:36;12.65;;;7.95;;
44248;SDS011;29923;48.718;9.272;2022-12-07T00:23:01;11.15;;;7.90;;
44248;SDS011;29923;48.718;9.272;2022-12-07T00:25:27;13.35;;;8.68;;
44248;SDS011;29923;48.718;9.272;2022-12-07T00:27:53;14.10;;;8.85;;
44248;SDS011;29923;48.718;9.272;2022-12-07T00:30:21;12.25;;;8.25;;
44248;SDS011;29923;48.718;9.272;2022-12-07T00:32:46;13.50;;;8.40;;
44248;SDS011;29923;48.718;9.272;2022-12-07T00:35:12;14.07;;;9.00;;
44248;SDS011;29923;48.718;9.272;2022-12-07T00:37:37;13.63;;;8.43;;
44248;SDS011;29923;48.718;9.272;2022-12-07T00:40:03;13.50;;;8.65;;
44248;SDS011;29923;48.718;9.272;2022-12-07T00:42:29;11.80;;;8.40;;
44248;SDS011;29923;48.718;9.272;2022-12-07T00:44:54;12.77;;;8.48;;
44248;SDS011;29923;48.718;9.272;2022-12-07T00:47:19;12.35;;;8.50;;
44248;SDS011;29923;48.718;9.272;2022-12-07T00:49:45;12.95;;;8.57;;
44248;SDS011;29923;48.718;9.272;2022-12-07T00:52:10;11.57;;;8.25;;
44248;SDS011;29923;48.718;9.272;2022-12-07T00:54:35;11.95;;;8.15;;
44248;SDS011;29923;48.718;9.272;2022-12-07T00:57:01;16.40;;;8.65;;
44248;SDS011;29923;48.718;9.272;2022-12-07T00:59:26;13.95;;;8.88;;
44248;SDS011;29923;48.718;9.272;2022-12-07T01:01:51;14.70;;;9.27;;
44248;SDS011;29923;48.718;9.272;2022-12-07T01:04:16;15.57;;;9.07;;
44248;SDS011;29923;48.718;9.272;2022-12-07T01:06:42;14.27;;;9.15;;
44248;SDS011;29923;48.718;9.272;2022-12-07T01:09:07;14.05;;;9.23;;
44248;SDS011;29923;48.718;9.272;2022-12-07T01:11:32;14.55;;;9.27;;
44248;SDS011;29923;48.718;9.272;2022-12-07T01:13:58;11.55;;;8.70;;
44248;SDS011;29923;48.718;9.272;2022-12-07T01:16:26;12.48;;;9.05;;
44248;SDS011;29923;48.718;9.272;2022-12-07T01:18:53;12.93;;;8.88;;
44248;SDS011;29923;48.718;9.272;2022-12-07T01:21:20;12.63;;;9.02;;
44248;SDS011;29923;48.718;9.272;2022-12-07T01:23:47;16.48;;;9.57;;
44248;SDS011;29923;48.718;9.272;2022-12-07T01:26:14;14.00;;;9.85;;
44248;SDS011;29923;48.718;9.272;2022-12-07T01:28:41;12.82;;;9.10;;
44248;SDS011;29923;48.718;9.272;2022-12-07T01:31:07;15.23;;;9.85;;
44248;SDS011;29923;48.718;9.272;2022-12-07T01:33:39;14.32;;;9.40;;
44248;SDS011;29923;48.718;9.272;2022-12-07T01:38:42;14.43;;;9.18;;
44248;SDS011;29923;48.718;9.272;2022-12-07T01:41:08;17.27;;;10.10;;
44248;SDS011;29923;48.718;9.272;2022-12-07T01:43:34;17.05;;;10.82;;
44248;SDS011;29923;48.718;9.272;2022-12-07T01:46:01;16.65;;;10.57;;
44248;SDS011;29923;48.718;9.272;2022-12-07T01:50:57;18.83;;;11.15;;
44248;SDS011;29923;48.718;9.272;2022-12-07T01:53:26;14.68;;;10.25;;
44248;SDS011;29923;48.718;9.272;2022-12-07T01:55:53;16.13;;;10.60;;
44248;SDS011;29923;48.718;9.272;2022-12-07T01:58:19;15.25;;;9.93;;
44248;SDS011;29923;48.718;9.272;2022-12-07T02:00:45;16.90;;;10.38;;
44248;SDS011;29923;48.718;9.272;2022-12-07T02:03:13;17.35;;;10.55;;
44248;SDS011;29923;48.718;9.272;2022-12-07T02:05:43;17.92;;;10.88;;
44248;SDS011;29923;48.718;9.272;2022-12-07T02:08:08;18.42;;;10.85;;
44248;SDS011;29923;48.718;9.272;2022-12-07T02:10:34;18.80;;;10.95;;
44248;SDS011;29923;48.718;9.272;2022-12-07T02:15:45;14.63;;;10.38;;
44248;SDS011;29923;48.718;9.272;2022-12-07T02:20:48;18.23;;;10.65;;
44248;SDS011;29923;48.718;9.272;2022-12-07T02:23:30;15.88;;;10.63;;
44248;SDS011;29923;48.718;9.272;2022-12-07T02:29:17;22.88;;;12.45;;
44248;SDS011;29923;48.718;9.272;2022-12-07T02:32:01;17.08;;;11.50;;
44248;SDS011;29923;48.718;9.272;2022-12-07T02:37:21;16.85;;;11.45;;
44248;SDS011;29923;48.718;9.272;2022-12-07T02:39:59;17.33;;;11.05;;
44248;SDS011;29923;48.718;9.272;2022-12-07T02:42:34;19.10;;;12.07;;
44248;SDS011;29923;48.718;9.272;2022-12-07T02:45:02;18.77;;;10.95;;
44248;SDS011;29923;48.718;9.272;2022-12-07T02:47:29;18.50;;;11.32;;
44248;SDS011;29923;48.718;9.272;2022-12-07T02:49:55;15.55;;;10.82;;
44248;SDS011;29923;48.718;9.272;2022-12-07T02:52:20;19.05;;;12.15;;
44248;SDS011;29923;48.718;9.272;2022-12-07T02:54:45;16.83;;;11.48;;
44248;SDS011;29923;48.718;9.272;2022-12-07T03:02:48;16.95;;;10.88;;
44248;SDS011;29923;48.718;9.272;2022-12-07T03:15:46;17.02;;;11.68;;
44248;SDS011;29923;48.718;9.272;2022-12-07T03:18:16;19.63;;;11.80;;
44248;SDS011;29923;48.718;9.272;2022-12-07T03:20:44;18.90;;;12.70;;
44248;SDS011;29923;48.718;9.272;2022-12-07T03:23:12;21.08;;;11.38;;
44248;SDS011;29923;48.718;9.272;2022-12-07T03:25:42;19.80;;;12.20;;
44248;SDS011;29923;48.718;9.272;2022-12-07T03:28:11;18.50;;;11.32;;
44248;SDS011;29923;48.718;9.272;2022-12-07T03:30:42;24.25;;;12.25;;
44248;SDS011;29923;48.718;9.272;2022-12-07T03:33:25;18.38;;;12.75;;
44248;SDS011;29923;48.718;9.272;2022-12-07T03:36:04;19.05;;;10.98;;
44248;SDS011;29923;48.718;9.272;2022-12-07T03:41:08;17.85;;;11.40;;
44248;SDS011;29923;48.718;9.272;2022-12-07T03:43:36;16.50;;;10.85;;
44248;SDS011;29923;48.718;9.272;2022-12-07T03:46:08;16.40;;;11.05;;
44248;SDS011;29923;48.718;9.272;2022-12-07T03:56:35;16.20;;;10.73;;
44248;SDS011;29923;48.718;9.272;2022-12-07T03:59:01;17.98;;;11.25;;
44248;SDS011;29923;48.718;9.272;2022-12-07T04:01:27;17.23;;;11.25;;
44248;SDS011;29923;48.718;9.272;2022-12-07T04:03:52;20.58;;;11.82;;
44248;SDS011;29923;48.718;9.272;2022-12-07T04:06:17;19.17;;;11.93;;
44248;SDS011;29923;48.718;9.272;2022-12-07T04:08:43;19.90;;;11.52;;
44248;SDS011;29923;48.718;9.272;2022-12-07T04:11:08;16.88;;;10.98;;
44248;SDS011;29923;48.718;9.272;2022-12-07T04:13:33;20.40;;;11.38;;
44248;SDS011;29923;48.718;9.272;2022-12-07T04:16:19;16.67;;;11.35;;
44248;SDS011;29923;48.718;9.272;2022-12-07T04:18:44;18.10;;;11.15;;
44248;SDS011;29923;48.718;9.272;2022-12-07T04:21:10;18.02;;;11.95;;
44248;SDS011;29923;48.718;9.272;2022-12-07T04:23:35;16.75;;;10.95;;
44248;SDS011;29923;48.718;9.272;2022-12-07T04:26:00;18.58;;;11.98;;
44248;SDS011;29923;48.718;9.272;2022-12-07T04:28:25;19.58;;;11.40;;
44248;SDS011;29923;48.718;9.272;2022-12-07T04:30:51;19.17;;;12.05;;
44248;SDS011;29923;48.718;9.272;2022-12-07T04:33:16;17.40;;;10.68;;
44248;SDS011;29923;48.718;9.272;2022-12-07T04:35:42;17.73;;;10.27;;
44248;SDS011;29923;48.718;9.272;2022-12-07T04:38:07;21.85;;;11.68;;
44248;SDS011;29923;48.718;9.272;2022-12-07T04:40:33;20.23;;;12.27;;
44248;SDS011;29923;48.718;9.272;2022-12-07T04:42:58;19.92;;;12.25;;
44248;SDS011;29923;48.718;9.272;2022-12-07T04:45:23;18.20;;;11.38;;
44248;SDS011;29923;48.718;9.272;2022-12-07T04:47:48;19.73;;;12.35;;
44248;SDS011;29923;48.718;9.272;2022-12-07T04:50:14;18.35;;;12.20;;
44248;SDS011;29923;48.718;9.272;2022-12-07T04:52:39;20.08;;;12.90;;
44248;SDS011;29923;48.718;9.272;2022-12-07T04:55:04;20.73;;;12.93;;
44248;SDS011;29923;48.718;9.272;2022-12-07T04:57:30;22.77;;;13.15;;
44248;SDS011;29923;48.718;9.272;2022-12-07T04:59:55;20.05;;;12.02;;
44248;SDS011;29923;48.718;9.272;2022-12-07T05:02:21;26.30;;;12.93;;
44248;SDS011;29923;48.718;9.272;2022-12-07T05:04:46;20.70;;;13.02;;
44248;SDS011;29923;48.718;9.272;2022-12-07T05:07:11;20.30;;;12.27;;
44248;SDS011;29923;48.718;9.272;2022-12-07T05:09:36;17.30;;;10.75;;
44248;SDS011;29923;48.718;9.272;2022-12-07T05:12:02;21.65;;;12.15;;
44248;SDS011;29923;48.718;9.272;2022-12-07T05:14:27;17.58;;;11.15;;
44248;SDS011;29923;48.718;9.272;2022-12-07T05:16:53;16.77;;;11.38;;
44248;SDS011;29923;48.718;9.272;2022-12-07T05:19:18;21.02;;;11.38;;
44248;SDS011;29923;48.718;9.272;2022-12-07T05:21:44;18.15;;;11.65;;
44248;SDS011;29923;48.718;9.272;2022-12-07T05:24:10;18.88;;;10.73;;
44248;SDS011;29923;48.718;9.272;2022-12-07T05:26:37;18.73;;;10.98;;
44248;SDS011;29923;48.718;9.272;2022-12-07T05:29:02;18.35;;;11.43;;
44248;SDS011;29923;48.718;9.272;2022-12-07T05:31:28;16.08;;;10.75;;
44248;SDS011;29923;48.718;9.272;2022-12-07T05:33:53;18.30;;;11.38;;
44248;SDS011;29923;48.718;9.272;2022-12-07T05:36:19;18.60;;;12.15;;
44248;SDS011;29923;48.718;9.272;2022-12-07T05:38:44;21.95;;;12.45;;
44248;SDS011;29923;48.718;9.272;2022-12-07T05:41:11;19.67;;;12.50;;
44248;SDS011;29923;48.718;9.272;2022-12-07T05:43:58;18.52;;;11.70;;
44248;SDS011;29923;48.718;9.272;2022-12-07T05:46:23;26.67;;;19.15;;
44248;SDS011;29923;48.718;9.272;2022-12-07T05:48:49;14.88;;;10.43;;
44248;SDS011;29923;48.718;9.272;2022-12-07T05:51:14;19.27;;;12.43;;
44248;SDS011;29923;48.718;9.272;2022-12-07T05:53:40;19.13;;;11.30;;
44248;SDS011;29923;48.718;9.272;2022-12-07T05:56:05;18.20;;;10.68;;
44248;SDS011;29923;48.718;9.272;2022-12-07T05:58:31;18.55;;;11.95;;
44248;SDS011;29923;48.718;9.272;2022-12-07T06:01:14;19.48;;;11.40;;
44248;SDS011;29923;48.718;9.272;2022-12-07T06:03:40;27.13;;;11.75;;
44248;SDS011;29923;48.718;9.272;2022-12-07T06:06:05;21.35;;;12.00;;
44248;SDS011;29923;48.718;9.272;2022-12-07T06:08:30;24.08;;;11.50;;
44248;SDS011;29923;48.718;9.272;2022-12-07T06:10:56;17.30;;;11.30;;
44248;SDS011;29923;48.718;9.272;2022-12-07T06:13:44;14.85;;;9.70;;
44248;SDS011;29923;48.718;9.272;2022-12-07T06:16:10;19.38;;;12.95;;
44248;SDS011;29923;48.718;9.272;2022-12-07T06:18:35;34.58;;;23.85;;
44248;SDS011;29923;48.718;9.272;2022-12-07T06:21:00;18.20;;;12.00;;
44248;SDS011;29923;48.718;9.272;2022-12-07T06:23:26;19.88;;;11.75;;
44248;SDS011;29923;48.718;9.272;2022-12-07T06:25:51;19.50;;;11.50;;
44248;SDS011;29923;48.718;9.272;2022-12-07T06:28:16;22.88;;;11.93;;
44248;SDS011;29923;48.718;9.272;2022-12-07T06:30:42;20.60;;;11.93;;
44248;SDS011;29923;48.718;9.272;2022-12-07T06:33:07;29.25;;;12.65;;
44248;SDS011;29923;48.718;9.272;2022-12-07T06:35:32;23.15;;;12.18;;
44248;SDS011;29923;48.718;9.272;2022-12-07T06:37:58;19.02;;;11.50;;
44248;SDS011;29923;48.718;9.272;2022-12-07T06:40:23;51.63;;;27.75;;
44248;SDS011;29923;48.718;9.272;2022-12-07T06:42:49;20.50;;;11.52;;
44248;SDS011;29923;48.718;9.272;2022-12-07T06:45:14;17.52;;;11.43;;
44248;SDS011;29923;48.718;9.272;2022-12-07T06:47:39;20.10;;;11.63;;
44248;SDS011;29923;48.718;9.272;2022-12-07T06:50:05;19.88;;;11.02;;
44248;SDS011;29923;48.718;9.272;2022-12-07T06:52:32;18.90;;;12.20;;
44248;SDS011;29923;48.718;9.272;2022-12-07T06:54:58;22.70;;;10.50;;
44248;SDS011;29923;48.718;9.272;2022-12-07T06:57:23;18.17;;;10.10;;
44248;SDS011;29923;48.718;9.272;2022-12-07T06:59:49;17.75;;;9.65;;
44248;SDS011;29923;48.718;9.272;2022-12-07T07:02:14;16.17;;;9.65;;
44248;SDS011;29923;48.718;9.272;2022-12-07T07:04:39;15.93;;;9.57;;
44248;SDS011;29923;48.718;9.272;2022-12-07T07:07:05;14.48;;;8.80;;
44248;SDS011;29923;48.718;9.272;2022-12-07T07:09:30;13.95;;;9.13;;
44248;SDS011;29923;48.718;9.272;2022-12-07T07:11:55;14.95;;;8.80;;
44248;SDS011;29923;48.718;9.272;2022-12-07T07:14:21;18.10;;;9.30;;
44248;SDS011;29923;48.718;9.272;2022-12-07T07:16:46;22.60;;;10.10;;
44248;SDS011;29923;48.718;9.272;2022-12-07T07:19:12;13.02;;;8.40;;
44248;SDS011;29923;48.718;9.272;2022-12-07T07:21:37;13.23;;;8.55;;
44248;SDS011;29923;48.718;9.272;2022-12-07T07:24:02;14.05;;;8.43;;
44248;SDS011;29923;48.718;9.272;2022-12-07T07:26:28;17.27;;;8.80;;
44248;SDS011;29923;48.718;9.272;2022-12-07T07:28:53;16.00;;;8.10;;
44248;SDS011;29923;48.718;9.272;2022-12-07T07:31:18;13.90;;;8.70;;
44248;SDS011;29923;48.718;9.272;2022-12-07T07:33:45;12.93;;;8.30;;
44248;SDS011;29923;48.718;9.272;2022-12-07T07:36:11;11.77;;;8.45;;
44248;SDS011;29923;48.718;9.272;2022-12-07T07:38:36;12.98;;;8.32;;
44248;SDS011;29923;48.718;9.272;2022-12-07T07:41:02;17.17;;;8.18;;
44248;SDS011;29923;48.718;9.272;2022-12-07T07:43:27;14.15;;;8.75;;
44248;SDS011;29923;48.718;9.272;2022-12-07T07:45:52;15.00;;;9.27;;
44248;SDS011;29923;48.718;9.272;2022-12-07T07:48:18;17.77;;;8.38;;
44248;SDS011;29923;48.718;9.272;2022-12-07T07:50:43;21.02;;;9.23;;
44248;SDS011;29923;48.718;9.272;2022-12-07T07:53:09;14.20;;;8.77;;
44248;SDS011;29923;48.718;9.272;2022-12-07T07:55:34;18.35;;;9.70;;
44248;SDS011;29923;48.718;9.272;2022-12-07T07:57:59;14.52;;;9.50;;
44248;SDS011;29923;48.718;9.272;2022-12-07T08:00:25;15.65;;;9.40;;
44248;SDS011;29923;48.718;9.272;2022-12-07T08:02:50;15.10;;;9.10;;
44248;SDS011;29923;48.718;9.272;2022-12-07T08:05:15;15.77;;;9.63;;
44248;SDS011;29923;48.718;9.272;2022-12-07T08:07:41;15.63;;;9.82;;
44248;SDS011;29923;48.718;9.272;2022-12-07T08:10:07;17.23;;;10.38;;
44248;SDS011;29923;48.718;9.272;2022-12-07T08:12:35;15.73;;;9.90;;
44248;SDS011;29923;48.718;9.272;2022-12-07T08:15:02;15.85;;;9.63;;
44248;SDS011;29923;48.718;9.272;2022-12-07T08:17:28;22.45;;;10.15;;
44248;SDS011;29923;48.718;9.272;2022-12-07T08:19:53;14.18;;;8.32;;
44248;SDS011;29923;48.718;9.272;2022-12-07T08:22:19;14.63;;;7.97;;
44248;SDS011;29923;48.718;9.272;2022-12-07T08:24:44;14.52;;;9.02;;
44248;SDS011;29923;48.718;9.272;2022-12-07T08:27:10;13.77;;;9.05;;
44248;SDS011;29923;48.718;9.272;2022-12-07T08:29:35;14.70;;;9.20;;
44248;SDS011;29923;48.718;9.272;2022-12-07T08:32:00;15.40;;;10.05;;
44248;SDS011;29923;48.718;9.272;2022-12-07T08:34:26;16.92;;;9.98;;
44248;SDS011;29923;48.718;9.272;2022-12-07T08:36:51;14.25;;;9.70;;
44248;SDS011;29923;48.718;9.272;2022-12-07T08:39:17;15.30;;;10.27;;
44248;SDS011;29923;48.718;9.272;2022-12-07T08:41:42;17.83;;;10.35;;
44248;SDS011;29923;48.718;9.272;2022-12-07T08:44:08;16.38;;;10.65;;
44248;SDS011;29923;48.718;9.272;2022-12-07T08:49:33;17.33;;;9.80;;
44248;SDS011;29923;48.718;9.272;2022-12-07T08:52:00;16.75;;;9.20;;
44248;SDS011;29923;48.718;9.272;2022-12-07T08:54:26;15.02;;;9.48;;
44248;SDS011;29923;48.718;9.272;2022-12-07T08:56:53;17.08;;;9.15;;
44248;SDS011;29923;48.718;9.272;2022-12-07T08:59:19;17.40;;;9.52;;
44248;SDS011;29923;48.718;9.272;2022-12-07T09:01:45;12.52;;;8.10;;
44248;SDS011;29923;48.718;9.272;2022-12-07T09:04:10;14.25;;;7.93;;
44248;SDS011;29923;48.718;9.272;2022-12-07T09:06:36;11.95;;;7.18;;
44248;SDS011;29923;48.718;9.272;2022-12-07T09:09:02;10.00;;;6.70;;
44248;SDS011;29923;48.718;9.272;2022-12-07T09:11:28;12.32;;;7.78;;
44248;SDS011;29923;48.718;9.272;2022-12-07T09:13:53;11.63;;;7.68;;
44248;SDS011;29923;48.718;9.272;2022-12-07T09:16:19;11.85;;;7.50;;
44248;SDS011;29923;48.718;9.272;2022-12-07T09:18:44;13.43;;;7.20;;
44248;SDS011;29923;48.718;9.272;2022-12-07T09:21:09;11.93;;;7.43;;
44248;SDS011;29923;48.718;9.272;2022-12-07T09:23:35;12.88;;;7.53;;
44248;SDS011;29923;48.718;9.272;2022-12-07T09:26:01;11.02;;;6.07;;
44248;SDS011;29923;48.718;9.272;2022-12-07T09:28:26;11.13;;;6.82;;
44248;SDS011;29923;48.718;9.272;2022-12-07T09:30:52;12.10;;;7.57;;
44248;SDS011;29923;48.718;9.272;2022-12-07T09:33:17;11.27;;;7.28;;
44248;SDS011;29923;48.718;9.272;2022-12-07T09:35:46;10.20;;;6.20;;
44248;SDS011;29923;48.718;9.272;2022-12-07T09:38:12;13.05;;;6.72;;
44248;SDS011;29923;48.718;9.272;2022-12-07T09:40:38;13.15;;;7.57;;
44248;SDS011;29923;48.718;9.272;2022-12-07T09:43:03;13.70;;;6.47;;
44248;SDS011;29923;48.718;9.272;2022-12-07T09:45:38;12.27;;;5.70;;
44248;SDS011;29923;48.718;9.272;2022-12-07T09:48:03;8.35;;;6.03;;
44248;SDS011;29923;48.718;9.272;2022-12-07T09:50:29;11.10;;;6.60;;
44248;SDS011;29923;48.718;9.272;2022-12-07T09:52:58;10.38;;;6.63;;
44248;SDS011;29923;48.718;9.272;2022-12-07T09:55:33;14.57;;;7.30;;
44248;SDS011;29923;48.718;9.272;2022-12-07T09:57:58;11.60;;;6.75;;
44248;SDS011;29923;48.718;9.272;2022-12-07T10:00:24;14.38;;;7.55;;
44248;SDS011;29923;48.718;9.272;2022-12-07T10:05:19;10.52;;;6.03;;
44248;SDS011;29923;48.718;9.272;2022-12-07T10:07:48;12.60;;;6.60;;
44248;SDS011;29923;48.718;9.272;2022-12-07T10:10:19;11.23;;;6.57;;
44248;SDS011;29923;48.718;9.272;2022-12-07T10:12:52;9.80;;;7.15;;
44248;SDS011;29923;48.718;9.272;2022-12-07T10:20:45;10.15;;;6.78;;
44248;SDS011;29923;48.718;9.272;2022-12-07T10:23:16;19.75;;;6.78;;
44248;SDS011;29923;48.718;9.272;2022-12-07T10:25:42;11.88;;;6.90;;
44248;SDS011;29923;48.718;9.272;2022-12-07T10:30:56;8.90;;;6.05;;
44248;SDS011;29923;48.718;9.272;2022-12-07T10:36:00;12.52;;;6.90;;
44248;SDS011;29923;48.718;9.272;2022-12-07T10:38:26;9.63;;;6.07;;
44248;SDS011;29923;48.718;9.272;2022-12-07T10:41:03;12.85;;;6.60;;
44248;SDS011;29923;48.718;9.272;2022-12-07T10:43:29;10.27;;;6.20;;
44248;SDS011;29923;48.718;9.272;2022-12-07T10:51:23;11.23;;;6.70;;
44248;SDS011;29923;48.718;9.272;2022-12-07T10:54:10;14.38;;;5.95;;
44248;SDS011;29923;48.718;9.272;2022-12-07T10:56:54;12.40;;;6.25;;
44248;SDS011;29923;48.718;9.272;2022-12-07T11:08:01;19.63;;;5.88;;
44248;SDS011;29923;48.718;9.272;2022-12-07T11:13:20;11.45;;;5.97;;
44248;SDS011;29923;48.718;9.272;2022-12-07T11:18:59;8.45;;;5.75;;
44248;SDS011;29923;48.718;9.272;2022-12-07T11:22:06;8.55;;;5.40;;
44248;SDS011;29923;48.718;9.272;2022-12-07T11:24:25;8.65;;;5.32;;
44248;SDS011;29923;48.718;9.272;2022-12-07T11:29:54;7.50;;;5.13;;
44248;SDS011;29923;48.718;9.272;2022-12-07T11:32:39;9.45;;;5.88;;
44248;SDS011;29923;48.718;9.272;2022-12-07T11:37:56;14.57;;;6.88;;
44248;SDS011;29923;48.718;9.272;2022-12-07T11:40:36;8.50;;;5.57;;
44248;SDS011;29923;48.718;9.272;2022-12-07T11:45:55;13.02;;;6.00;;
44248;SDS011;29923;48.718;9.272;2022-12-07T11:50:54;9.20;;;5.57;;
44248;SDS011;29923;48.718;9.272;2022-12-07T11:56:06;8.65;;;5.30;;
44248;SDS011;29923;48.718;9.272;2022-12-07T12:03:51;9.10;;;5.95;;
44248;SDS011;29923;48.718;9.272;2022-12-07T12:06:18;9.05;;;5.65;;
44248;SDS011;29923;48.718;9.272;2022-12-07T12:09:19;9.05;;;5.47;;
44248;SDS011;29923;48.718;9.272;2022-12-07T12:20:29;9.23;;;5.55;;
44248;SDS011;29923;48.718;9.272;2022-12-07T12:25:52;10.88;;;6.03;;
44248;SDS011;29923;48.718;9.272;2022-12-07T12:33:56;10.55;;;5.53;;
44248;SDS011;29923;48.718;9.272;2022-12-07T12:41:50;10.70;;;5.70;;
44248;SDS011;29923;48.718;9.272;2022-12-07T12:46:44;9.65;;;5.32;;
44248;SDS011;29923;48.718;9.272;2022-12-07T12:49:54;11.90;;;6.40;;
44248;SDS011;29923;48.718;9.272;2022-12-07T12:57:36;7.68;;;4.93;;
44248;SDS011;29923;48.718;9.272;2022-12-07T13:00:23;8.00;;;4.55;;
44248;SDS011;29923;48.718;9.272;2022-12-07T13:02:52;6.22;;;4.05;;
44248;SDS011;29923;48.718;9.272;2022-12-07T13:05:36;7.10;;;4.30;;
44248;SDS011;29923;48.718;9.272;2022-12-07T13:08:03;10.20;;;4.88;;
44248;SDS011;29923;48.718;9.272;2022-12-07T13:10:38;5.97;;;4.43;;
44248;SDS011;29923;48.718;9.272;2022-12-07T13:15:40;6.70;;;4.72;;
44248;SDS011;29923;48.718;9.272;2022-12-07T13:28:47;8.50;;;6.35;;
44248;SDS011;29923;48.718;9.272;2022-12-07T13:31:33;9.32;;;6.30;;
44248;SDS011;29923;48.718;9.272;2022-12-07T13:34:01;11.25;;;6.38;;
44248;SDS011;29923;48.718;9.272;2022-12-07T13:36:37;9.35;;;6.15;;
44248;SDS011;29923;48.718;9.272;2022-12-07T13:39:23;11.00;;;5.60;;
44248;SDS011;29923;48.718;9.272;2022-12-07T13:41:50;8.55;;;5.85;;
44248;SDS011;29923;48.718;9.272;2022-12-07T13:44:23;6.75;;;5.70;;
44248;SDS011;29923;48.718;9.272;2022-12-07T13:47:05;7.53;;;5.43;;
44248;SDS011;29923;48.718;9.272;2022-12-07T13:49:38;13.35;;;5.97;;
44248;SDS011;29923;48.718;9.272;2022-12-07T13:57:30;8.43;;;4.90;;
44248;SDS011;29923;48.718;9.272;2022-12-07T13:59:56;7.53;;;4.78;;
44248;SDS011;29923;48.718;9.272;2022-12-07T14:02:28;8.38;;;5.18;;
44248;SDS011;29923;48.718;9.272;2022-12-07T14:05:15;7.32;;;4.85;;
44248;SDS011;29923;48.718;9.272;2022-12-07T14:08:33;9.05;;;4.90;;
44248;SDS011;29923;48.718;9.272;2022-12-07T14:10:38;11.50;;;5.40;;
44248;SDS011;29923;48.718;9.272;2022-12-07T14:15:50;9.05;;;5.63;;
44248;SDS011;29923;48.718;9.272;2022-12-07T14:18:29;7.60;;;5.00;;
44248;SDS011;29923;48.718;9.272;2022-12-07T14:21:30;7.57;;;4.50;;
44248;SDS011;29923;48.718;9.272;2022-12-07T14:26:39;7.63;;;5.13;;
44248;SDS011;29923;48.718;9.272;2022-12-07T14:31:49;7.45;;;4.95;;
44248;SDS011;29923;48.718;9.272;2022-12-07T14:34:16;7.07;;;4.65;;
44248;SDS011;29923;48.718;9.272;2022-12-07T14:36:41;7.22;;;4.50;;
44248;SDS011;29923;48.718;9.272;2022-12-07T14:39:06;6.32;;;4.25;;
44248;SDS011;29923;48.718;9.272;2022-12-07T14:41:32;6.30;;;4.18;;
44248;SDS011;29923;48.718;9.272;2022-12-07T14:44:15;6.10;;;4.18;;
44248;SDS011;29923;48.718;9.272;2022-12-07T14:46:41;8.65;;;4.28;;
44248;SDS011;29923;48.718;9.272;2022-12-07T14:49:06;8.80;;;4.60;;
44248;SDS011;29923;48.718;9.272;2022-12-07T14:51:31;5.38;;;4.07;;
44248;SDS011;29923;48.718;9.272;2022-12-07T14:53:57;8.10;;;4.35;;
44248;SDS011;29923;48.718;9.272;2022-12-07T14:56:23;10.73;;;4.88;;
44248;SDS011;29923;48.718;9.272;2022-12-07T14:58:49;5.95;;;4.25;;
44248;SDS011;29923;48.718;9.272;2022-12-07T15:01:14;5.13;;;3.58;;
44248;SDS011;29923;48.718;9.272;2022-12-07T15:03:40;7.47;;;4.10;;
44248;SDS011;29923;48.718;9.272;2022-12-07T15:06:05;6.65;;;4.07;;
44248;SDS011;29923;48.718;9.272;2022-12-07T15:08:31;6.10;;;4.05;;
44248;SDS011;29923;48.718;9.272;2022-12-07T15:10:57;7.60;;;3.70;;
44248;SDS011;29923;48.718;9.272;2022-12-07T15:13:22;5.55;;;3.83;;
44248;SDS011;29923;48.718;9.272;2022-12-07T15:16:08;5.88;;;4.40;;
44248;SDS011;29923;48.718;9.272;2022-12-07T15:18:35;9.23;;;4.53;;
44248;SDS011;29923;48.718;9.272;2022-12-07T15:21:00;10.77;;;4.47;;
44248;SDS011;29923;48.718;9.272;2022-12-07T15:23:26;6.32;;;4.38;;
44248;SDS011;29923;48.718;9.272;2022-12-07T15:25:51;5.90;;;3.63;;
44248;SDS011;29923;48.718;9.272;2022-12-07T15:28:16;7.65;;;4.00;;
44248;SDS011;29923;48.718;9.272;2022-12-07T15:30:42;7.53;;;4.15;;
44248;SDS011;29923;48.718;9.272;2022-12-07T15:33:08;7.65;;;4.00;;
44248;SDS011;29923;48.718;9.272;2022-12-07T15:35:41;5.63;;;4.13;;
44248;SDS011;29923;48.718;9.272;2022-12-07T15:38:07;8.77;;;3.97;;
44248;SDS011;29923;48.718;9.272;2022-12-07T15:40:33;7.07;;;4.40;;
44248;SDS011;29923;48.718;9.272;2022-12-07T15:42:59;7.93;;;5.07;;
44248;SDS011;29923;48.718;9.272;2022-12-07T15:45:24;6.25;;;4.60;;
44248;SDS011;29923;48.718;9.272;2022-12-07T15:47:49;6.13;;;4.47;;
44248;SDS011;29923;48.718;9.272;2022-12-07T15:50:15;9.00;;;5.10;;
44248;SDS011;29923;48.718;9.272;2022-12-07T15:52:41;9.63;;;4.82;;
44248;SDS011;29923;48.718;9.272;2022-12-07T15:55:08;8.02;;;5.28;;
44248;SDS011;29923;48.718;9.272;2022-12-07T15:57:35;10.27;;;5.15;;
44248;SDS011;29923;48.718;9.272;2022-12-07T16:00:02;7.78;;;5.10;;
44248;SDS011;29923;48.718;9.272;2022-12-07T16:02:28;7.13;;;5.03;;
44248;SDS011;29923;48.718;9.272;2022-12-07T16:04:53;18.05;;;10.43;;
44248;SDS011;29923;48.718;9.272;2022-12-07T16:07:19;11.25;;;5.85;;
44248;SDS011;29923;48.718;9.272;2022-12-07T16:09:45;10.07;;;5.05;;
44248;SDS011;29923;48.718;9.272;2022-12-07T16:12:11;8.13;;;5.20;;
44248;SDS011;29923;48.718;9.272;2022-12-07T16:14:38;8.25;;;5.07;;
44248;SDS011;29923;48.718;9.272;2022-12-07T16:17:05;6.88;;;4.60;;
44248;SDS011;29923;48.718;9.272;2022-12-07T16:19:31;8.52;;;5.25;;
44248;SDS011;29923;48.718;9.272;2022-12-07T16:21:57;7.00;;;5.18;;
44248;SDS011;29923;48.718;9.272;2022-12-07T16:24:22;8.07;;;4.90;;
44248;SDS011;29923;48.718;9.272;2022-12-07T16:26:47;11.32;;;7.05;;
44248;SDS011;29923;48.718;9.272;2022-12-07T16:29:14;9.55;;;5.82;;
44248;SDS011;29923;48.718;9.272;2022-12-07T16:31:39;28.38;;;16.48;;
44248;SDS011;29923;48.718;9.272;2022-12-07T16:34:05;8.85;;;5.28;;
44248;SDS011;29923;48.718;9.272;2022-12-07T16:36:31;9.30;;;5.57;;
44248;SDS011;29923;48.718;9.272;2022-12-07T16:38:57;10.07;;;6.00;;
44248;SDS011;29923;48.718;9.272;2022-12-07T16:41:23;10.85;;;6.13;;
44248;SDS011;29923;48.718;9.272;2022-12-07T16:43:49;10.15;;;6.30;;
44248;SDS011;29923;48.718;9.272;2022-12-07T16:46:14;9.27;;;6.45;;
44248;SDS011;29923;48.718;9.272;2022-12-07T16:48:40;9.43;;;6.35;;
44248;SDS011;29923;48.718;9.272;2022-12-07T16:51:07;11.55;;;6.97;;
44248;SDS011;29923;48.718;9.272;2022-12-07T16:53:37;13.23;;;7.18;;
44248;SDS011;29923;48.718;9.272;2022-12-07T16:56:03;11.88;;;7.00;;
44248;SDS011;29923;48.718;9.272;2022-12-07T16:58:30;11.27;;;6.78;;
44248;SDS011;29923;48.718;9.272;2022-12-07T17:00:55;12.88;;;7.28;;
44248;SDS011;29923;48.718;9.272;2022-12-07T17:03:21;12.48;;;7.53;;
44248;SDS011;29923;48.718;9.272;2022-12-07T17:05:46;19.73;;;7.72;;
44248;SDS011;29923;48.718;9.272;2022-12-07T17:08:12;16.42;;;8.40;;
44248;SDS011;29923;48.718;9.272;2022-12-07T17:10:40;18.77;;;14.00;;
44248;SDS011;29923;48.718;9.272;2022-12-07T17:13:07;21.85;;;14.82;;